createdAt,value
2017-10-22T00:01:43.021Z,13.30
2017-10-22T00:04:10.032Z,15.10
2017-10-22T00:06:36.280Z,13.90
2017-10-22T00:09:02.534Z,12.83
2017-10-22T00:11:28.775Z,13.70
2017-10-22T00:13:55.782Z,13.00
2017-10-22T00:16:22.082Z,11.50
2017-10-22T00:18:48.321Z,12.20
2017-10-22T00:21:15.309Z,11.90
2017-10-22T00:23:41.600Z,12.07
2017-10-22T00:26:08.589Z,11.53
2017-10-22T00:28:34.824Z,10.30
2017-10-22T00:31:01.852Z,11.97
2017-10-22T00:33:28.088Z,9.83
2017-10-22T00:35:55.091Z,10.87
2017-10-22T00:38:21.353Z,10.07
2017-10-22T00:40:47.703Z,10.50
2017-10-22T00:43:13.938Z,9.50
2017-10-22T00:45:40.938Z,9.80
2017-10-22T00:48:07.207Z,11.77
2017-10-22T00:50:33.450Z,10.27
2017-10-22T00:53:00.487Z,10.40
2017-10-22T00:55:26.733Z,10.20
2017-10-22T00:57:54.497Z,9.80
2017-10-22T01:00:21.526Z,10.30
2017-10-22T01:02:47.753Z,10.13
2017-10-22T01:05:13.993Z,10.20
2017-10-22T01:07:40.241Z,8.37
2017-10-22T01:10:06.511Z,7.60
2017-10-22T01:12:32.780Z,6.67
2017-10-22T01:14:59.079Z,6.57
2017-10-22T01:17:25.353Z,7.10
2017-10-22T01:19:51.597Z,7.17
2017-10-22T01:22:17.855Z,6.43
2017-10-22T01:24:44.089Z,7.00
2017-10-22T01:27:10.329Z,7.70
2017-10-22T01:29:36.603Z,7.40
2017-10-22T01:32:02.829Z,7.70
2017-10-22T01:34:29.834Z,6.80
2017-10-22T01:36:56.122Z,7.30
2017-10-22T01:39:22.355Z,5.90
2017-10-22T01:41:49.438Z,6.40
2017-10-22T01:44:15.759Z,5.57
2017-10-22T01:46:42.776Z,7.47
2017-10-22T01:49:09.014Z,6.70
2017-10-22T01:51:35.310Z,7.20
2017-10-22T01:54:01.555Z,6.63
2017-10-22T01:56:27.789Z,7.20
2017-10-22T01:58:54.068Z,6.53
2017-10-22T02:01:21.069Z,6.97
2017-10-22T02:03:47.314Z,6.13
2017-10-22T02:06:13.620Z,6.90
2017-10-22T02:08:43.746Z,5.70
2017-10-22T02:11:10.058Z,6.30
2017-10-22T02:13:36.339Z,5.93
2017-10-22T02:16:02.594Z,5.40
2017-10-22T02:18:28.862Z,5.30
2017-10-22T02:20:55.902Z,6.27
2017-10-22T02:23:22.939Z,5.60
2017-10-22T02:25:49.202Z,5.80
2017-10-22T02:28:16.214Z,4.90
2017-10-22T02:30:42.543Z,4.80
2017-10-22T02:33:08.824Z,5.40
2017-10-22T02:35:36.758Z,5.27
2017-10-22T02:38:03.074Z,4.90
2017-10-22T02:40:29.321Z,5.20
2017-10-22T02:42:55.719Z,5.03
2017-10-22T02:45:22.016Z,4.77
2017-10-22T02:47:48.281Z,5.37
2017-10-22T02:50:15.322Z,5.20
2017-10-22T02:52:42.350Z,4.57
2017-10-22T02:55:08.590Z,4.63
2017-10-22T02:57:36.427Z,5.40
2017-10-22T03:00:02.682Z,5.53
2017-10-22T03:02:28.957Z,5.50
2017-10-22T03:04:56.711Z,5.27
2017-10-22T03:07:22.991Z,6.00
2017-10-22T03:09:49.296Z,5.57
2017-10-22T03:12:17.036Z,5.50
2017-10-22T03:14:43.322Z,5.03
2017-10-22T03:17:10.317Z,5.00
2017-10-22T03:19:36.592Z,5.73
2017-10-22T03:22:02.834Z,5.47
2017-10-22T03:24:29.124Z,4.57
2017-10-22T03:26:55.424Z,4.80
2017-10-22T03:29:21.692Z,5.30
2017-10-22T03:31:47.942Z,5.43
2017-10-22T03:34:14.201Z,5.40
2017-10-22T03:36:41.206Z,5.00
2017-10-22T03:39:07.489Z,4.10
2017-10-22T03:41:33.735Z,4.80
2017-10-22T03:44:00.812Z,3.90
2017-10-22T03:46:27.068Z,5.20
2017-10-22T03:48:53.327Z,3.80
2017-10-22T03:51:19.599Z,4.60
2017-10-22T03:53:46.623Z,4.40
2017-10-22T03:56:12.886Z,4.00
2017-10-22T03:58:39.909Z,3.87
2017-10-22T04:01:06.904Z,3.57
2017-10-22T04:03:33.185Z,4.27
2017-10-22T04:05:59.436Z,3.77
2017-10-22T04:08:25.684Z,3.90
2017-10-22T04:10:51.952Z,3.63
2017-10-22T04:13:18.202Z,3.73
2017-10-22T04:15:44.475Z,3.63
2017-10-22T04:18:10.829Z,4.00
2017-10-22T04:20:37.112Z,3.83
2017-10-22T04:23:03.344Z,3.30
2017-10-22T04:25:29.592Z,3.90
2017-10-22T04:27:55.823Z,4.90
2017-10-22T04:30:22.115Z,3.27
2017-10-22T04:32:49.093Z,4.10
2017-10-22T04:35:15.342Z,3.77
2017-10-22T04:37:41.579Z,3.90
2017-10-22T04:40:07.888Z,3.30
2017-10-22T04:42:34.154Z,3.70
2017-10-22T04:45:00.462Z,3.37
2017-10-22T04:47:26.761Z,3.43
2017-10-22T04:49:53.021Z,3.80
2017-10-22T04:52:19.306Z,3.73
2017-10-22T04:54:45.588Z,3.77
2017-10-22T04:57:12.596Z,4.03
2017-10-22T04:59:38.843Z,3.30
2017-10-22T05:02:05.135Z,3.53
2017-10-22T05:04:31.406Z,4.67
2017-10-22T05:06:57.714Z,4.23
2017-10-22T05:09:23.963Z,3.60
2017-10-22T05:11:50.307Z,3.47
2017-10-22T05:14:16.638Z,3.97
2017-10-22T05:16:42.919Z,3.77
2017-10-22T05:19:09.984Z,3.00
2017-10-22T05:21:37.001Z,4.33
2017-10-22T05:24:03.294Z,2.83
2017-10-22T05:26:29.575Z,3.43
2017-10-22T05:28:55.832Z,2.97
2017-10-22T05:31:22.818Z,3.13
2017-10-22T05:33:49.054Z,4.23
2017-10-22T05:36:15.334Z,3.53
2017-10-22T05:38:42.403Z,4.23
2017-10-22T05:41:08.642Z,4.30
2017-10-22T05:43:35.615Z,3.30
2017-10-22T05:46:01.947Z,3.50
2017-10-22T05:48:28.195Z,3.90
2017-10-22T05:50:54.477Z,4.43
2017-10-22T05:53:20.755Z,3.63
2017-10-22T05:55:47.006Z,3.33
2017-10-22T05:58:13.261Z,3.50
2017-10-22T06:00:39.544Z,3.00
2017-10-22T06:03:05.822Z,3.90
2017-10-22T06:05:32.079Z,3.43
2017-10-22T06:07:58.359Z,3.33
2017-10-22T06:10:25.377Z,3.73
2017-10-22T06:12:51.615Z,2.70
2017-10-22T06:15:17.900Z,3.50
2017-10-22T06:17:44.141Z,3.10
2017-10-22T06:20:10.402Z,3.67
2017-10-22T06:22:36.662Z,3.30
2017-10-22T06:25:03.670Z,2.90
2017-10-22T06:27:30.726Z,2.93
2017-10-22T06:29:57.041Z,3.37
2017-10-22T06:32:23.294Z,3.70
2017-10-22T06:34:49.546Z,3.27
2017-10-22T06:37:15.911Z,3.63
2017-10-22T06:39:42.921Z,3.23
2017-10-22T06:42:09.254Z,3.80
2017-10-22T06:44:35.602Z,2.80
2017-10-22T06:47:01.953Z,4.20
2017-10-22T06:49:28.226Z,3.53
2017-10-22T06:51:55.265Z,3.07
2017-10-22T06:54:21.564Z,3.43
2017-10-22T06:56:47.882Z,3.90
2017-10-22T06:59:14.225Z,4.10
2017-10-22T07:01:40.470Z,3.87
2017-10-22T07:04:06.763Z,4.13
2017-10-22T07:06:33.833Z,3.37
2017-10-22T07:09:00.098Z,3.37
2017-10-22T07:11:26.350Z,3.97
2017-10-22T07:13:53.440Z,3.97
2017-10-22T07:16:20.461Z,3.37
2017-10-22T07:18:46.726Z,3.40
2017-10-22T07:21:12.967Z,3.40
2017-10-22T07:23:39.975Z,4.70
2017-10-22T07:26:06.214Z,2.87
2017-10-22T07:28:32.462Z,3.27
2017-10-22T07:30:59.598Z,4.27
2017-10-22T07:33:25.843Z,3.57
2017-10-22T07:35:53.634Z,3.33
2017-10-22T07:38:19.901Z,3.33
2017-10-22T07:40:46.165Z,4.13
2017-10-22T07:43:12.474Z,6.13
2017-10-22T07:45:38.721Z,5.77
2017-10-22T07:48:05.123Z,4.23
2017-10-22T07:50:31.446Z,4.93
2017-10-22T07:52:58.450Z,3.27
2017-10-22T07:55:24.706Z,3.50
2017-10-22T07:57:51.001Z,4.30
2017-10-22T08:00:17.238Z,4.73
2017-10-22T08:02:43.471Z,5.27
2017-10-22T08:05:09.775Z,5.10
2017-10-22T08:07:36.053Z,3.97
2017-10-22T08:10:02.315Z,3.50
2017-10-22T08:12:28.543Z,3.67
2017-10-22T08:14:54.841Z,5.60
2017-10-22T08:17:21.804Z,5.57
2017-10-22T08:19:48.103Z,3.47
2017-10-22T08:22:15.098Z,3.43
2017-10-22T08:24:41.987Z,3.53
2017-10-22T08:27:09.100Z,3.43
2017-10-22T08:29:35.368Z,3.93
2017-10-22T08:32:01.594Z,4.17
2017-10-22T08:34:27.874Z,3.67
2017-10-22T08:36:54.896Z,3.90
2017-10-22T08:39:21.170Z,3.13
2017-10-22T08:41:48.179Z,2.57
2017-10-22T08:44:14.487Z,3.60
2017-10-22T08:46:40.775Z,4.23
2017-10-22T08:49:07.902Z,3.13
2017-10-22T08:51:34.179Z,3.90
2017-10-22T08:54:01.158Z,3.40
2017-10-22T08:56:27.474Z,2.77
2017-10-22T08:58:54.471Z,3.60
2017-10-22T09:01:20.750Z,3.63
2017-10-22T09:03:47.914Z,3.20
2017-10-22T09:06:14.234Z,3.57
2017-10-22T09:08:40.537Z,2.83
2017-10-22T09:11:06.800Z,3.17
2017-10-22T09:13:33.816Z,2.80
2017-10-22T09:16:00.082Z,3.03
2017-10-22T09:18:26.398Z,2.50
2017-10-22T09:20:52.686Z,2.70
2017-10-22T09:23:18.965Z,2.60
2017-10-22T09:25:45.246Z,2.43
2017-10-22T09:28:12.255Z,2.40
2017-10-22T09:30:38.515Z,2.33
2017-10-22T09:33:04.858Z,2.70
2017-10-22T09:35:31.162Z,2.80
2017-10-22T09:37:57.430Z,3.47
2017-10-22T09:40:23.832Z,3.50
2017-10-22T09:42:50.142Z,2.20
2017-10-22T09:45:16.417Z,3.10
2017-10-22T09:47:42.702Z,3.13
2017-10-22T09:50:09.063Z,2.57
2017-10-22T09:52:35.337Z,2.70
2017-10-22T09:55:01.636Z,2.10
2017-10-22T09:57:27.918Z,2.17
2017-10-22T09:59:54.188Z,2.70
2017-10-22T10:02:20.488Z,2.03
2017-10-22T10:04:48.255Z,1.90
2017-10-22T10:07:14.572Z,2.07
2017-10-22T10:09:40.842Z,2.50
2017-10-22T10:12:07.109Z,2.10
2017-10-22T10:14:33.401Z,2.23
2017-10-22T10:16:59.751Z,2.40
2017-10-22T10:19:26.022Z,2.23
2017-10-22T10:21:52.289Z,2.00
2017-10-22T10:24:18.638Z,2.40
2017-10-22T10:26:45.715Z,3.03
2017-10-22T10:29:12.750Z,1.90
2017-10-22T10:31:39.039Z,2.27
2017-10-22T10:34:05.358Z,2.13
2017-10-22T10:36:31.625Z,2.23
2017-10-22T10:38:57.929Z,1.67
2017-10-22T10:41:24.178Z,2.00
2017-10-22T10:43:50.428Z,1.80
2017-10-22T10:46:23.674Z,2.23
2017-10-22T10:48:50.682Z,1.83
2017-10-22T10:51:17.031Z,1.80
2017-10-22T10:53:43.385Z,1.70
2017-10-22T10:56:09.676Z,1.57
2017-10-22T10:58:35.965Z,1.70
2017-10-22T11:01:02.608Z,1.83
2017-10-22T11:03:28.931Z,2.60
2017-10-22T11:05:55.360Z,1.20
2017-10-22T11:08:21.844Z,2.50
2017-10-22T11:10:48.442Z,1.90
2017-10-22T11:13:14.742Z,2.30
2017-10-22T11:15:41.050Z,1.63
2017-10-22T11:18:08.108Z,1.57
2017-10-22T11:20:35.102Z,2.00
2017-10-22T11:23:01.371Z,2.00
2017-10-22T11:25:29.094Z,2.20
2017-10-22T11:27:55.330Z,1.20
2017-10-22T11:30:21.642Z,2.00
2017-10-22T11:32:48.610Z,1.57
2017-10-22T11:35:14.865Z,1.70
2017-10-22T11:37:41.147Z,2.00
2017-10-22T11:40:08.166Z,1.80
2017-10-22T11:42:34.464Z,2.30
2017-10-22T11:45:00.782Z,1.60
2017-10-22T11:47:27.762Z,1.30
2017-10-22T11:49:54.008Z,1.93
2017-10-22T11:52:20.342Z,2.70
2017-10-22T11:54:46.584Z,2.23
2017-10-22T11:57:12.853Z,2.53
2017-10-22T11:59:39.146Z,2.00
2017-10-22T12:02:05.852Z,2.53
2017-10-22T12:04:32.100Z,2.07
2017-10-22T12:06:59.133Z,2.53
2017-10-22T12:09:26.142Z,1.43
2017-10-22T12:11:52.411Z,1.53
2017-10-22T12:14:18.713Z,1.83
2017-10-22T12:16:45.019Z,1.70
2017-10-22T12:19:11.322Z,1.03
2017-10-22T12:21:38.327Z,1.47
2017-10-22T12:24:04.572Z,1.30
2017-10-22T12:26:30.825Z,1.57
2017-10-22T12:28:57.114Z,1.40
2017-10-22T12:31:23.386Z,1.60
2017-10-22T12:33:49.643Z,1.80
2017-10-22T12:36:15.962Z,3.13
2017-10-22T12:38:42.247Z,2.57
2017-10-22T12:41:08.517Z,1.20
2017-10-22T12:43:34.797Z,1.60
2017-10-22T12:46:01.788Z,1.63
2017-10-22T12:48:28.038Z,1.57
2017-10-22T12:50:54.298Z,1.40
2017-10-22T12:53:20.640Z,1.50
2017-10-22T12:55:46.911Z,2.67
2017-10-22T12:58:13.973Z,1.40
2017-10-22T13:00:40.244Z,1.47
2017-10-22T13:03:06.540Z,1.53
2017-10-22T13:05:32.836Z,1.37
2017-10-22T13:07:59.823Z,1.80
2017-10-22T13:10:26.835Z,1.93
2017-10-22T13:12:53.125Z,1.40
2017-10-22T13:15:19.361Z,1.80
2017-10-22T13:17:45.630Z,1.30
2017-10-22T13:20:12.062Z,2.00
2017-10-22T13:22:38.406Z,2.23
2017-10-22T13:25:04.719Z,1.90
2017-10-22T13:27:30.989Z,2.27
2017-10-22T13:29:57.253Z,1.40
2017-10-22T13:32:24.263Z,2.30
2017-10-22T13:34:50.542Z,2.67
2017-10-22T13:37:16.835Z,3.70
2017-10-22T13:39:43.944Z,3.00
2017-10-22T13:42:10.249Z,3.00
2017-10-22T13:44:36.510Z,2.70
2017-10-22T13:47:03.502Z,3.23
2017-10-22T13:49:29.814Z,3.30
2017-10-22T13:51:56.060Z,4.20
2017-10-22T13:54:22.486Z,4.00
2017-10-22T13:56:49.604Z,4.70
2017-10-22T13:59:15.969Z,5.00
2017-10-22T14:01:42.968Z,4.63
2017-10-22T14:04:09.213Z,4.10
2017-10-22T14:06:35.491Z,5.07
2017-10-22T14:09:01.820Z,4.30
2017-10-22T14:11:28.827Z,5.10
2017-10-22T14:13:55.093Z,4.63
2017-10-22T14:16:21.359Z,4.40
2017-10-22T14:18:47.666Z,4.37
2017-10-22T14:21:13.938Z,5.00
2017-10-22T14:23:40.213Z,5.30
2017-10-22T14:26:06.504Z,4.57
2017-10-22T14:28:32.802Z,5.20
2017-10-22T14:30:59.108Z,4.83
2017-10-22T14:33:26.216Z,4.60
2017-10-22T14:35:53.215Z,4.33
2017-10-22T14:38:19.470Z,4.10
2017-10-22T14:40:45.781Z,4.30
2017-10-22T14:43:12.046Z,4.33
2017-10-22T14:45:38.326Z,4.10
2017-10-22T14:48:04.594Z,3.87
2017-10-22T14:50:30.884Z,4.80
2017-10-22T14:52:57.905Z,4.20
2017-10-22T14:55:24.514Z,5.20
2017-10-22T14:57:50.786Z,5.20
2017-10-22T15:00:17.053Z,4.77
2017-10-22T15:02:44.097Z,4.97
2017-10-22T15:05:11.116Z,5.57
2017-10-22T15:07:37.397Z,5.93
2017-10-22T15:10:04.441Z,5.60
2017-10-22T15:12:31.467Z,6.83
2017-10-22T15:14:57.802Z,6.83
2017-10-22T15:17:24.138Z,6.13
2017-10-22T15:19:50.413Z,6.77
2017-10-22T15:22:17.502Z,7.30
2017-10-22T15:24:44.582Z,8.07
2017-10-22T15:27:10.839Z,8.00
2017-10-22T15:29:37.819Z,8.90
2017-10-22T15:32:04.098Z,7.37
2017-10-22T15:34:30.367Z,8.80
2017-10-22T15:36:57.408Z,6.43
2017-10-22T15:39:24.512Z,5.67
2017-10-22T15:41:50.754Z,6.13
2017-10-22T15:44:18.030Z,5.67
2017-10-22T15:46:45.192Z,14.90
2017-10-22T15:49:11.726Z,17.83
2017-10-22T15:51:38.874Z,29.40
2017-10-22T15:54:06.025Z,13.20
2017-10-22T15:56:33.427Z,4.53
2017-10-22T15:58:59.858Z,4.83
2017-10-22T16:01:26.344Z,5.40
2017-10-22T16:03:52.868Z,3.67
2017-10-22T16:06:19.304Z,16.07
2017-10-22T16:08:47.333Z,153.93
2017-10-22T16:11:15.211Z,59.27
2017-10-22T16:13:42.372Z,118.00
2017-10-22T16:16:08.852Z,25.70
2017-10-22T16:18:35.321Z,36.57
2017-10-22T16:21:01.691Z,80.13
2017-10-22T16:23:28.074Z,78.87
2017-10-22T16:25:54.858Z,24.60
2017-10-22T16:28:22.004Z,77.40
2017-10-22T16:30:49.164Z,36.13
2017-10-22T16:33:15.552Z,42.10
2017-10-22T16:35:41.937Z,57.63
2017-10-22T16:38:09.742Z,78.70
2017-10-22T16:40:36.131Z,62.50
2017-10-22T16:43:02.534Z,87.73
2017-10-22T16:45:32.125Z,35.23
2017-10-22T16:47:59.237Z,19.23
2017-10-22T16:50:26.559Z,7.90
2017-10-22T16:52:54.612Z,10.37
2017-10-22T16:55:21.029Z,8.70
2017-10-22T16:57:48.253Z,5.67
2017-10-22T17:00:14.695Z,7.40
2017-10-22T17:02:41.075Z,4.33
2017-10-22T17:05:08.188Z,7.27
2017-10-22T17:07:37.964Z,3.30
2017-10-22T17:10:04.314Z,4.80
2017-10-22T17:12:31.311Z,4.90
2017-10-22T17:14:57.554Z,4.20
2017-10-22T17:17:23.867Z,3.80
2017-10-22T17:19:50.118Z,3.67
2017-10-22T17:22:17.386Z,3.57
2017-10-22T17:24:43.649Z,4.20
2017-10-22T17:27:10.660Z,3.13
2017-10-22T17:29:36.964Z,3.70
2017-10-22T17:32:03.958Z,3.70
2017-10-22T17:34:30.194Z,3.90
2017-10-22T17:36:56.646Z,5.17
2017-10-22T17:39:22.915Z,5.10
2017-10-22T17:41:49.171Z,5.30
2017-10-22T17:44:16.217Z,5.60
2017-10-22T17:46:43.190Z,6.23
2017-10-22T17:49:09.442Z,6.70
2017-10-22T17:51:35.722Z,5.80
2017-10-22T17:54:02.718Z,7.70
2017-10-22T17:56:28.958Z,7.43
2017-10-22T17:58:56.948Z,7.70
2017-10-22T18:01:23.231Z,7.43
2017-10-22T18:03:50.197Z,11.30
2017-10-22T18:06:16.482Z,19.90
2017-10-22T18:08:42.710Z,35.57
2017-10-22T18:11:08.966Z,8.50
2017-10-22T18:13:35.222Z,7.93
2017-10-22T18:16:02.221Z,6.83
2017-10-22T18:18:28.454Z,7.23
2017-10-22T18:20:54.706Z,8.77
2017-10-22T18:23:20.983Z,7.93
2017-10-22T18:25:47.960Z,8.50
2017-10-22T18:28:14.229Z,8.27
2017-10-22T18:30:40.525Z,8.57
2017-10-22T18:33:06.766Z,8.07
2017-10-22T18:35:33.081Z,9.10
2017-10-22T18:37:59.356Z,9.03
2017-10-22T18:40:25.610Z,8.20
2017-10-22T18:42:51.865Z,8.80
2017-10-22T18:45:18.849Z,9.73
2017-10-22T18:47:45.088Z,9.20
2017-10-22T18:50:11.374Z,8.27
2017-10-22T18:52:38.405Z,9.90
2017-10-22T18:55:04.680Z,8.90
2017-10-22T18:57:31.717Z,9.90
2017-10-22T18:59:58.278Z,8.60
2017-10-22T19:02:24.547Z,8.27
2017-10-22T19:04:50.834Z,8.80
2017-10-22T19:07:17.101Z,24.43
2017-10-22T19:09:44.078Z,8.10
2017-10-22T19:12:10.346Z,7.40
2017-10-22T19:14:36.574Z,6.57
2017-10-22T19:17:02.855Z,6.73
2017-10-22T19:19:29.858Z,5.90
2017-10-22T19:21:56.126Z,6.47
2017-10-22T19:24:22.348Z,6.60
2017-10-22T19:26:48.620Z,5.90
2017-10-22T19:29:14.892Z,7.63
2017-10-22T19:31:41.923Z,6.40
2017-10-22T19:34:08.178Z,6.27
2017-10-22T19:36:34.440Z,6.27
2017-10-22T19:39:01.444Z,6.30
2017-10-22T19:41:34.742Z,6.90
2017-10-22T19:44:00.983Z,5.20
2017-10-22T19:46:27.233Z,5.20
2017-10-22T19:48:53.506Z,5.10
2017-10-22T19:51:20.474Z,6.30
2017-10-22T19:53:47.483Z,4.63
2017-10-22T19:56:15.277Z,5.40
2017-10-22T19:58:42.330Z,7.07
2017-10-22T20:01:09.407Z,6.30
2017-10-22T20:03:35.719Z,5.33
2017-10-22T20:06:02.751Z,5.80
2017-10-22T20:08:29.004Z,13.93
2017-10-22T20:10:56.777Z,16.67
2017-10-22T20:13:23.083Z,8.80
2017-10-22T20:15:49.351Z,6.83
2017-10-22T20:18:16.373Z,7.97
2017-10-22T20:20:42.658Z,7.43
2017-10-22T20:23:08.950Z,7.20
2017-10-22T20:25:36.099Z,7.77
2017-10-22T20:28:02.369Z,7.40
2017-10-22T20:30:28.689Z,7.47
2017-10-22T20:32:55.818Z,8.50
2017-10-22T20:35:22.078Z,10.23
2017-10-22T20:37:49.074Z,8.43
2017-10-22T20:40:15.370Z,8.40
2017-10-22T20:42:42.390Z,7.77
2017-10-22T20:45:09.433Z,6.10
2017-10-22T20:47:37.266Z,7.43
2017-10-22T20:50:04.282Z,6.27
2017-10-22T20:52:30.588Z,7.00
2017-10-22T20:54:56.892Z,7.90
2017-10-22T20:57:23.893Z,6.67
2017-10-22T20:59:50.175Z,13.97
2017-10-22T21:02:16.520Z,22.47
2017-10-22T21:04:43.519Z,8.70
2017-10-22T21:07:09.753Z,9.10
2017-10-22T21:09:36.043Z,7.63
2017-10-22T21:12:03.066Z,8.40
2017-10-22T21:14:29.318Z,8.87
2017-10-22T21:16:55.590Z,8.83
2017-10-22T21:19:21.866Z,9.00
2017-10-22T21:21:48.301Z,8.70
2017-10-22T21:24:15.442Z,8.73
2017-10-22T21:26:41.783Z,7.70
2017-10-22T21:29:08.051Z,9.23
2017-10-22T21:31:34.374Z,9.40
2017-10-22T21:34:00.626Z,7.40
2017-10-22T21:36:27.630Z,7.70
2017-10-22T21:38:53.943Z,8.60
2017-10-22T21:41:20.193Z,8.67
2017-10-22T21:43:46.515Z,8.10
2017-10-22T21:46:12.798Z,8.10
2017-10-22T21:48:39.067Z,7.17
2017-10-22T21:51:06.078Z,8.03
2017-10-22T21:53:32.382Z,7.80
2017-10-22T21:55:58.621Z,7.20
2017-10-22T21:58:24.882Z,8.93
2017-10-22T22:00:51.166Z,8.70
2017-10-22T22:03:18.403Z,7.73
2017-10-22T22:05:45.410Z,6.93
2017-10-22T22:08:11.710Z,7.20
2017-10-22T22:10:38.715Z,7.23
2017-10-22T22:13:05.007Z,7.70
2017-10-22T22:15:31.291Z,7.83
2017-10-22T22:17:57.526Z,7.00
2017-10-22T22:20:23.770Z,8.30
2017-10-22T22:22:50.775Z,7.87
2017-10-22T22:25:17.014Z,7.13
2017-10-22T22:27:43.254Z,7.63
2017-10-22T22:30:09.531Z,8.70
2017-10-22T22:32:36.535Z,8.23
2017-10-22T22:35:02.822Z,8.60
2017-10-22T22:37:30.599Z,8.27
2017-10-22T22:39:57.599Z,9.40
2017-10-22T22:42:23.840Z,8.40
2017-10-22T22:44:50.129Z,8.30
2017-10-22T22:47:17.118Z,9.60
2017-10-22T22:49:43.376Z,9.73
2017-10-22T22:52:09.641Z,8.93
2017-10-22T22:54:37.365Z,9.60
2017-10-22T22:57:03.595Z,9.43
2017-10-22T22:59:31.482Z,9.47
2017-10-22T23:01:57.747Z,10.00
2017-10-22T23:04:25.675Z,8.60
2017-10-22T23:06:51.950Z,9.43
2017-10-22T23:09:18.951Z,10.83
2017-10-22T23:11:45.241Z,8.30
2017-10-22T23:14:12.368Z,9.53
2017-10-22T23:16:38.619Z,9.90
2017-10-22T23:19:04.878Z,9.50
2017-10-22T23:21:31.170Z,10.80
2017-10-22T23:23:57.418Z,9.93
2017-10-22T23:26:23.674Z,9.43
2017-10-22T23:28:49.962Z,9.20
2017-10-22T23:31:16.218Z,9.07
2017-10-22T23:33:42.513Z,9.80
2017-10-22T23:36:10.350Z,9.37
2017-10-22T23:38:37.344Z,8.13
2017-10-22T23:41:03.614Z,10.73
2017-10-22T23:43:29.878Z,11.73
2017-10-22T23:45:56.137Z,10.10
2017-10-22T23:48:23.143Z,10.47
2017-10-22T23:50:49.399Z,10.97
2017-10-22T23:53:15.630Z,9.30
2017-10-22T23:55:41.866Z,9.63
2017-10-22T23:58:09.707Z,9.27
